sensor_id;sensor_type;location;lat;lon;timestamp;P1;durP1;ratioP1;P2;durP2;ratioP2
8260;SDS011;64115;50.170;8.242;2023-07-08T00:02:11;5.60;;;5.10;;
8260;SDS011;64115;50.170;8.242;2023-07-08T00:04:39;5.87;;;5.27;;
8260;SDS011;64115;50.170;8.242;2023-07-08T00:07:08;5.57;;;5.07;;
8260;SDS011;64115;50.170;8.242;2023-07-08T00:09:38;5.20;;;4.80;;
8260;SDS011;64115;50.170;8.242;2023-07-08T00:12:07;5.20;;;4.80;;
8260;SDS011;64115;50.170;8.242;2023-07-08T00:14:38;5.20;;;4.70;;
8260;SDS011;64115;50.170;8.242;2023-07-08T00:17:08;4.83;;;4.43;;
8260;SDS011;64115;50.170;8.242;2023-07-08T00:19:38;5.20;;;4.70;;
8260;SDS011;64115;50.170;8.242;2023-07-08T00:22:08;4.60;;;4.20;;
8260;SDS011;64115;50.170;8.242;2023-07-08T00:24:37;5.27;;;4.77;;
8260;SDS011;64115;50.170;8.242;2023-07-08T00:27:04;5.37;;;4.57;;
8260;SDS011;64115;50.170;8.242;2023-07-08T00:29:31;6.57;;;4.67;;
8260;SDS011;64115;50.170;8.242;2023-07-08T00:31:58;4.80;;;4.40;;
8260;SDS011;64115;50.170;8.242;2023-07-08T00:34:26;5.27;;;4.63;;
8260;SDS011;64115;50.170;8.242;2023-07-08T00:36:52;5.07;;;4.57;;
8260;SDS011;64115;50.170;8.242;2023-07-08T00:39:19;5.30;;;4.80;;
8260;SDS011;64115;50.170;8.242;2023-07-08T00:41:46;4.73;;;4.33;;
8260;SDS011;64115;50.170;8.242;2023-07-08T00:44:13;5.10;;;4.60;;
8260;SDS011;64115;50.170;8.242;2023-07-08T00:46:42;4.63;;;4.23;;
8260;SDS011;64115;50.170;8.242;2023-07-08T00:49:25;7.20;;;4.77;;
8260;SDS011;64115;50.170;8.242;2023-07-08T00:52:19;5.30;;;4.60;;
8260;SDS011;64115;50.170;8.242;2023-07-08T00:54:49;5.17;;;4.67;;
8260;SDS011;64115;50.170;8.242;2023-07-08T00:57:21;5.83;;;4.73;;
8260;SDS011;64115;50.170;8.242;2023-07-08T00:59:52;5.10;;;4.60;;
8260;SDS011;64115;50.170;8.242;2023-07-08T01:02:22;5.87;;;5.10;;
8260;SDS011;64115;50.170;8.242;2023-07-08T01:04:54;6.27;;;4.90;;
8260;SDS011;64115;50.170;8.242;2023-07-08T01:07:27;5.40;;;4.70;;
8260;SDS011;64115;50.170;8.242;2023-07-08T01:09:55;4.93;;;4.53;;
8260;SDS011;64115;50.170;8.242;2023-07-08T01:12:28;5.20;;;4.70;;
8260;SDS011;64115;50.170;8.242;2023-07-08T01:14:59;5.37;;;4.80;;
8260;SDS011;64115;50.170;8.242;2023-07-08T01:17:28;6.23;;;5.20;;
8260;SDS011;64115;50.170;8.242;2023-07-08T01:19:59;5.57;;;5.07;;
8260;SDS011;64115;50.170;8.242;2023-07-08T01:22:30;5.53;;;5.03;;
8260;SDS011;64115;50.170;8.242;2023-07-08T01:24:58;5.17;;;4.67;;
8260;SDS011;64115;50.170;8.242;2023-07-08T01:27:28;6.47;;;5.33;;
8260;SDS011;64115;50.170;8.242;2023-07-08T01:29:57;5.83;;;4.93;;
8260;SDS011;64115;50.170;8.242;2023-07-08T01:32:24;6.00;;;5.20;;
8260;SDS011;64115;50.170;8.242;2023-07-08T01:34:52;6.20;;;4.90;;
8260;SDS011;64115;50.170;8.242;2023-07-08T01:37:27;5.47;;;4.97;;
8260;SDS011;64115;50.170;8.242;2023-07-08T01:40:13;5.57;;;5.07;;
8260;SDS011;64115;50.170;8.242;2023-07-08T01:42:41;5.50;;;4.90;;
8260;SDS011;64115;50.170;8.242;2023-07-08T01:45:10;5.53;;;5.03;;
8260;SDS011;64115;50.170;8.242;2023-07-08T01:47:38;5.60;;;5.10;;
8260;SDS011;64115;50.170;8.242;2023-07-08T01:50:07;5.37;;;4.93;;
8260;SDS011;64115;50.170;8.242;2023-07-08T01:52:37;4.93;;;4.53;;
8260;SDS011;64115;50.170;8.242;2023-07-08T01:55:04;5.40;;;4.90;;
8260;SDS011;64115;50.170;8.242;2023-07-08T01:57:31;5.93;;;5.20;;
8260;SDS011;64115;50.170;8.242;2023-07-08T01:59:58;5.33;;;4.83;;
8260;SDS011;64115;50.170;8.242;2023-07-08T02:02:25;5.30;;;4.73;;
8260;SDS011;64115;50.170;8.242;2023-07-08T02:04:52;6.57;;;4.80;;
8260;SDS011;64115;50.170;8.242;2023-07-08T02:07:18;5.40;;;4.90;;
8260;SDS011;64115;50.170;8.242;2023-07-08T02:09:46;5.40;;;4.90;;
8260;SDS011;64115;50.170;8.242;2023-07-08T02:12:13;5.37;;;4.40;;
8260;SDS011;64115;50.170;8.242;2023-07-08T02:14:40;5.30;;;4.80;;
8260;SDS011;64115;50.170;8.242;2023-07-08T02:17:06;5.30;;;4.80;;
8260;SDS011;64115;50.170;8.242;2023-07-08T02:19:34;4.77;;;4.37;;
8260;SDS011;64115;50.170;8.242;2023-07-08T02:22:01;5.53;;;5.03;;
8260;SDS011;64115;50.170;8.242;2023-07-08T02:24:29;5.40;;;5.00;;
8260;SDS011;64115;50.170;8.242;2023-07-08T02:26:57;5.00;;;4.57;;
8260;SDS011;64115;50.170;8.242;2023-07-08T02:29:24;4.90;;;4.40;;
8260;SDS011;64115;50.170;8.242;2023-07-08T02:31:52;5.53;;;5.03;;
8260;SDS011;64115;50.170;8.242;2023-07-08T02:34:21;5.30;;;4.80;;
8260;SDS011;64115;50.170;8.242;2023-07-08T02:36:48;5.87;;;5.27;;
8260;SDS011;64115;50.170;8.242;2023-07-08T02:39:15;5.93;;;4.97;;
8260;SDS011;64115;50.170;8.242;2023-07-08T02:41:42;5.30;;;4.90;;
8260;SDS011;64115;50.170;8.242;2023-07-08T02:44:10;5.53;;;4.90;;
8260;SDS011;64115;50.170;8.242;2023-07-08T02:46:36;5.50;;;5.00;;
8260;SDS011;64115;50.170;8.242;2023-07-08T02:49:03;5.17;;;4.77;;
8260;SDS011;64115;50.170;8.242;2023-07-08T02:51:30;5.80;;;5.07;;
8260;SDS011;64115;50.170;8.242;2023-07-08T02:53:57;5.63;;;5.13;;
8260;SDS011;64115;50.170;8.242;2023-07-08T02:56:24;5.23;;;4.70;;
8260;SDS011;64115;50.170;8.242;2023-07-08T02:58:51;5.27;;;4.57;;
8260;SDS011;64115;50.170;8.242;2023-07-08T03:01:19;5.37;;;4.60;;
8260;SDS011;64115;50.170;8.242;2023-07-08T03:03:46;5.50;;;4.80;;
8260;SDS011;64115;50.170;8.242;2023-07-08T03:06:14;5.40;;;4.90;;
8260;SDS011;64115;50.170;8.242;2023-07-08T03:08:41;5.13;;;4.63;;
8260;SDS011;64115;50.170;8.242;2023-07-08T03:11:07;5.13;;;4.63;;
8260;SDS011;64115;50.170;8.242;2023-07-08T03:13:38;7.90;;;4.87;;
8260;SDS011;64115;50.170;8.242;2023-07-08T03:16:05;5.33;;;4.50;;
8260;SDS011;64115;50.170;8.242;2023-07-08T03:18:38;5.50;;;5.00;;
8260;SDS011;64115;50.170;8.242;2023-07-08T03:21:11;4.97;;;4.47;;
8260;SDS011;64115;50.170;8.242;2023-07-08T03:23:38;5.33;;;4.83;;
8260;SDS011;64115;50.170;8.242;2023-07-08T03:26:05;5.50;;;5.00;;
8260;SDS011;64115;50.170;8.242;2023-07-08T03:28:32;6.20;;;4.57;;
8260;SDS011;64115;50.170;8.242;2023-07-08T03:30:59;5.70;;;5.13;;
8260;SDS011;64115;50.170;8.242;2023-07-08T03:33:26;5.33;;;4.83;;
8260;SDS011;64115;50.170;8.242;2023-07-08T03:35:54;4.83;;;4.43;;
8260;SDS011;64115;50.170;8.242;2023-07-08T03:38:21;4.73;;;4.33;;
8260;SDS011;64115;50.170;8.242;2023-07-08T03:40:48;5.40;;;4.90;;
8260;SDS011;64115;50.170;8.242;2023-07-08T03:43:15;5.53;;;5.07;;
8260;SDS011;64115;50.170;8.242;2023-07-08T03:45:41;5.47;;;4.90;;
8260;SDS011;64115;50.170;8.242;2023-07-08T03:48:08;5.70;;;5.20;;
8260;SDS011;64115;50.170;8.242;2023-07-08T03:50:37;6.40;;;5.30;;
8260;SDS011;64115;50.170;8.242;2023-07-08T03:53:05;5.10;;;4.57;;
8260;SDS011;64115;50.170;8.242;2023-07-08T03:55:32;5.13;;;4.63;;
8260;SDS011;64115;50.170;8.242;2023-07-08T03:57:59;5.43;;;4.93;;
8260;SDS011;64115;50.170;8.242;2023-07-08T04:00:26;5.37;;;4.87;;
8260;SDS011;64115;50.170;8.242;2023-07-08T04:02:52;5.27;;;4.50;;
8260;SDS011;64115;50.170;8.242;2023-07-08T04:05:20;4.73;;;4.33;;
8260;SDS011;64115;50.170;8.242;2023-07-08T04:07:48;5.67;;;4.67;;
8260;SDS011;64115;50.170;8.242;2023-07-08T04:10:16;5.13;;;4.63;;
8260;SDS011;64115;50.170;8.242;2023-07-08T04:12:43;4.97;;;4.53;;
8260;SDS011;64115;50.170;8.242;2023-07-08T04:15:10;5.10;;;4.70;;
8260;SDS011;64115;50.170;8.242;2023-07-08T04:17:39;4.80;;;4.33;;
8260;SDS011;64115;50.170;8.242;2023-07-08T04:20:10;6.20;;;4.60;;
8260;SDS011;64115;50.170;8.242;2023-07-08T04:22:37;5.27;;;4.40;;
8260;SDS011;64115;50.170;8.242;2023-07-08T04:25:04;5.03;;;4.40;;
8260;SDS011;64115;50.170;8.242;2023-07-08T04:27:32;5.10;;;4.60;;
8260;SDS011;64115;50.170;8.242;2023-07-08T04:29:59;4.67;;;4.20;;
8260;SDS011;64115;50.170;8.242;2023-07-08T04:32:25;5.00;;;4.60;;
8260;SDS011;64115;50.170;8.242;2023-07-08T04:34:52;4.70;;;4.30;;
8260;SDS011;64115;50.170;8.242;2023-07-08T04:37:19;5.10;;;4.60;;
8260;SDS011;64115;50.170;8.242;2023-07-08T04:39:50;5.07;;;4.67;;
8260;SDS011;64115;50.170;8.242;2023-07-08T04:42:17;4.90;;;4.50;;
8260;SDS011;64115;50.170;8.242;2023-07-08T04:44:45;4.87;;;4.53;;
8260;SDS011;64115;50.170;8.242;2023-07-08T04:47:11;4.83;;;4.43;;
8260;SDS011;64115;50.170;8.242;2023-07-08T04:49:39;4.77;;;4.37;;
8260;SDS011;64115;50.170;8.242;2023-07-08T04:52:09;4.50;;;4.10;;
8260;SDS011;64115;50.170;8.242;2023-07-08T04:54:36;4.80;;;4.40;;
8260;SDS011;64115;50.170;8.242;2023-07-08T04:57:03;5.77;;;4.90;;
8260;SDS011;64115;50.170;8.242;2023-07-08T04:59:30;5.17;;;4.70;;
8260;SDS011;64115;50.170;8.242;2023-07-08T05:02:00;4.83;;;4.43;;
8260;SDS011;64115;50.170;8.242;2023-07-08T05:04:27;5.03;;;4.53;;
8260;SDS011;64115;50.170;8.242;2023-07-08T05:06:54;4.57;;;4.07;;
8260;SDS011;64115;50.170;8.242;2023-07-08T05:09:21;4.87;;;4.47;;
8260;SDS011;64115;50.170;8.242;2023-07-08T05:11:50;5.03;;;4.60;;
8260;SDS011;64115;50.170;8.242;2023-07-08T05:14:18;5.43;;;4.80;;
8260;SDS011;64115;50.170;8.242;2023-07-08T05:16:44;5.77;;;4.20;;
8260;SDS011;64115;50.170;8.242;2023-07-08T05:19:13;4.83;;;4.33;;
8260;SDS011;64115;50.170;8.242;2023-07-08T05:21:39;4.63;;;4.20;;
8260;SDS011;64115;50.170;8.242;2023-07-08T05:24:08;4.63;;;4.23;;
8260;SDS011;64115;50.170;8.242;2023-07-08T05:26:34;4.70;;;4.30;;
8260;SDS011;64115;50.170;8.242;2023-07-08T05:29:01;4.73;;;4.33;;
8260;SDS011;64115;50.170;8.242;2023-07-08T05:31:28;4.70;;;4.30;;
8260;SDS011;64115;50.170;8.242;2023-07-08T05:33:55;4.40;;;4.00;;
8260;SDS011;64115;50.170;8.242;2023-07-08T05:36:23;4.30;;;3.90;;
8260;SDS011;64115;50.170;8.242;2023-07-08T05:38:49;4.80;;;4.40;;
8260;SDS011;64115;50.170;8.242;2023-07-08T05:41:16;4.60;;;4.20;;
8260;SDS011;64115;50.170;8.242;2023-07-08T05:43:43;5.60;;;4.47;;
8260;SDS011;64115;50.170;8.242;2023-07-08T05:46:10;4.70;;;4.30;;
8260;SDS011;64115;50.170;8.242;2023-07-08T05:48:36;5.33;;;4.37;;
8260;SDS011;64115;50.170;8.242;2023-07-08T05:51:03;4.67;;;4.27;;
8260;SDS011;64115;50.170;8.242;2023-07-08T05:53:31;5.37;;;4.13;;
8260;SDS011;64115;50.170;8.242;2023-07-08T05:55:58;4.67;;;4.27;;
8260;SDS011;64115;50.170;8.242;2023-07-08T05:58:25;4.97;;;4.47;;
8260;SDS011;64115;50.170;8.242;2023-07-08T06:00:55;4.20;;;3.90;;
8260;SDS011;64115;50.170;8.242;2023-07-08T06:03:22;4.47;;;4.10;;
8260;SDS011;64115;50.170;8.242;2023-07-08T06:05:49;4.43;;;4.10;;
8260;SDS011;64115;50.170;8.242;2023-07-08T06:08:16;4.47;;;4.00;;
8260;SDS011;64115;50.170;8.242;2023-07-08T06:10:44;6.23;;;4.07;;
8260;SDS011;64115;50.170;8.242;2023-07-08T06:13:11;4.50;;;4.10;;
8260;SDS011;64115;50.170;8.242;2023-07-08T06:15:39;4.77;;;4.37;;
8260;SDS011;64115;50.170;8.242;2023-07-08T06:18:07;5.33;;;4.67;;
8260;SDS011;64115;50.170;8.242;2023-07-08T06:20:36;5.00;;;4.60;;
8260;SDS011;64115;50.170;8.242;2023-07-08T06:23:03;4.10;;;3.80;;
8260;SDS011;64115;50.170;8.242;2023-07-08T06:25:30;4.63;;;4.23;;
8260;SDS011;64115;50.170;8.242;2023-07-08T06:27:58;4.80;;;4.40;;
8260;SDS011;64115;50.170;8.242;2023-07-08T06:30:25;5.00;;;4.50;;
8260;SDS011;64115;50.170;8.242;2023-07-08T06:32:52;4.70;;;4.30;;
8260;SDS011;64115;50.170;8.242;2023-07-08T06:35:19;4.80;;;4.40;;
8260;SDS011;64115;50.170;8.242;2023-07-08T06:37:45;4.87;;;4.37;;
8260;SDS011;64115;50.170;8.242;2023-07-08T06:40:12;5.10;;;4.40;;
8260;SDS011;64115;50.170;8.242;2023-07-08T06:42:39;5.20;;;4.70;;
8260;SDS011;64115;50.170;8.242;2023-07-08T06:45:08;4.87;;;4.47;;
8260;SDS011;64115;50.170;8.242;2023-07-08T06:47:37;5.20;;;4.80;;
8260;SDS011;64115;50.170;8.242;2023-07-08T06:50:04;5.50;;;5.00;;
8260;SDS011;64115;50.170;8.242;2023-07-08T06:52:32;6.93;;;5.30;;
8260;SDS011;64115;50.170;8.242;2023-07-08T06:55:02;6.27;;;5.53;;
8260;SDS011;64115;50.170;8.242;2023-07-08T06:57:30;10.83;;;6.47;;
8260;SDS011;64115;50.170;8.242;2023-07-08T06:59:57;15.50;;;7.10;;
8260;SDS011;64115;50.170;8.242;2023-07-08T07:02:26;6.77;;;5.60;;
8260;SDS011;64115;50.170;8.242;2023-07-08T07:04:53;8.23;;;5.67;;
8260;SDS011;64115;50.170;8.242;2023-07-08T07:07:20;7.43;;;6.30;;
8260;SDS011;64115;50.170;8.242;2023-07-08T07:09:47;9.10;;;5.50;;
8260;SDS011;64115;50.170;8.242;2023-07-08T07:12:13;5.93;;;5.33;;
8260;SDS011;64115;50.170;8.242;2023-07-08T07:14:40;7.27;;;5.87;;
8260;SDS011;64115;50.170;8.242;2023-07-08T07:17:07;6.10;;;5.50;;
8260;SDS011;64115;50.170;8.242;2023-07-08T07:19:35;6.80;;;5.73;;
8260;SDS011;64115;50.170;8.242;2023-07-08T07:22:02;6.10;;;5.43;;
8260;SDS011;64115;50.170;8.242;2023-07-08T07:24:29;9.33;;;6.03;;
8260;SDS011;64115;50.170;8.242;2023-07-08T07:26:56;8.53;;;5.70;;
8260;SDS011;64115;50.170;8.242;2023-07-08T07:29:23;5.80;;;5.30;;
8260;SDS011;64115;50.170;8.242;2023-07-08T07:31:52;6.50;;;5.90;;
8260;SDS011;64115;50.170;8.242;2023-07-08T07:34:19;5.83;;;5.33;;
8260;SDS011;64115;50.170;8.242;2023-07-08T07:36:48;7.30;;;5.90;;
8260;SDS011;64115;50.170;8.242;2023-07-08T07:39:14;6.03;;;5.50;;
8260;SDS011;64115;50.170;8.242;2023-07-08T07:41:41;6.93;;;5.90;;
8260;SDS011;64115;50.170;8.242;2023-07-08T07:44:08;7.07;;;6.07;;
8260;SDS011;64115;50.170;8.242;2023-07-08T07:46:34;6.23;;;5.73;;
8260;SDS011;64115;50.170;8.242;2023-07-08T07:49:01;7.93;;;5.40;;
8260;SDS011;64115;50.170;8.242;2023-07-08T07:51:28;7.50;;;5.43;;
8260;SDS011;64115;50.170;8.242;2023-07-08T07:53:56;6.37;;;5.70;;
8260;SDS011;64115;50.170;8.242;2023-07-08T07:56:23;5.50;;;5.00;;
8260;SDS011;64115;50.170;8.242;2023-07-08T07:58:50;5.53;;;5.03;;
8260;SDS011;64115;50.170;8.242;2023-07-08T08:01:16;4.83;;;4.40;;
8260;SDS011;64115;50.170;8.242;2023-07-08T08:03:44;5.33;;;4.80;;
8260;SDS011;64115;50.170;8.242;2023-07-08T08:06:11;4.37;;;3.90;;
8260;SDS011;64115;50.170;8.242;2023-07-08T08:08:38;4.43;;;4.03;;
8260;SDS011;64115;50.170;8.242;2023-07-08T08:11:06;4.33;;;3.90;;
8260;SDS011;64115;50.170;8.242;2023-07-08T08:13:33;4.50;;;4.10;;
8260;SDS011;64115;50.170;8.242;2023-07-08T08:15:59;4.90;;;4.40;;
8260;SDS011;64115;50.170;8.242;2023-07-08T08:18:26;4.50;;;4.10;;
8260;SDS011;64115;50.170;8.242;2023-07-08T08:20:53;4.87;;;4.40;;
8260;SDS011;64115;50.170;8.242;2023-07-08T08:23:20;5.47;;;4.50;;
8260;SDS011;64115;50.170;8.242;2023-07-08T08:25:46;6.83;;;4.47;;
8260;SDS011;64115;50.170;8.242;2023-07-08T08:28:15;5.10;;;4.57;;
8260;SDS011;64115;50.170;8.242;2023-07-08T08:30:41;5.53;;;4.77;;
8260;SDS011;64115;50.170;8.242;2023-07-08T08:33:12;4.47;;;4.07;;
8260;SDS011;64115;50.170;8.242;2023-07-08T08:35:39;5.80;;;4.83;;
8260;SDS011;64115;50.170;8.242;2023-07-08T08:38:05;5.17;;;4.53;;
8260;SDS011;64115;50.170;8.242;2023-07-08T08:40:32;5.30;;;4.80;;
8260;SDS011;64115;50.170;8.242;2023-07-08T08:43:00;5.60;;;5.10;;
8260;SDS011;64115;50.170;8.242;2023-07-08T08:45:31;6.00;;;4.80;;
8260;SDS011;64115;50.170;8.242;2023-07-08T08:48:03;5.07;;;4.57;;
8260;SDS011;64115;50.170;8.242;2023-07-08T08:50:35;5.53;;;5.03;;
8260;SDS011;64115;50.170;8.242;2023-07-08T08:53:09;5.20;;;4.77;;
8260;SDS011;64115;50.170;8.242;2023-07-08T08:55:38;7.10;;;4.93;;
8260;SDS011;64115;50.170;8.242;2023-07-08T08:58:09;4.80;;;4.40;;
8260;SDS011;64115;50.170;8.242;2023-07-08T09:00:48;5.73;;;4.77;;
8260;SDS011;64115;50.170;8.242;2023-07-08T09:03:24;5.30;;;4.80;;
8260;SDS011;64115;50.170;8.242;2023-07-08T09:06:00;6.13;;;4.97;;
8260;SDS011;64115;50.170;8.242;2023-07-08T09:08:34;6.37;;;4.70;;
8260;SDS011;64115;50.170;8.242;2023-07-08T09:11:07;5.60;;;5.10;;
8260;SDS011;64115;50.170;8.242;2023-07-08T09:13:41;5.23;;;4.73;;
8260;SDS011;64115;50.170;8.242;2023-07-08T09:16:09;5.27;;;4.73;;
8260;SDS011;64115;50.170;8.242;2023-07-08T09:18:45;5.20;;;4.73;;
8260;SDS011;64115;50.170;8.242;2023-07-08T09:21:24;7.23;;;4.60;;
8260;SDS011;64115;50.170;8.242;2023-07-08T09:23:53;5.00;;;4.60;;
8260;SDS011;64115;50.170;8.242;2023-07-08T09:26:25;4.77;;;4.47;;
8260;SDS011;64115;50.170;8.242;2023-07-08T09:28:58;7.77;;;4.77;;
8260;SDS011;64115;50.170;8.242;2023-07-08T09:31:26;4.93;;;4.43;;
8260;SDS011;64115;50.170;8.242;2023-07-08T09:34:04;4.47;;;4.17;;
8260;SDS011;64115;50.170;8.242;2023-07-08T09:36:38;4.87;;;4.47;;
8260;SDS011;64115;50.170;8.242;2023-07-08T09:39:11;4.80;;;4.40;;
8260;SDS011;64115;50.170;8.242;2023-07-08T09:41:39;5.27;;;4.53;;
8260;SDS011;64115;50.170;8.242;2023-07-08T09:44:16;4.73;;;4.30;;
8260;SDS011;64115;50.170;8.242;2023-07-08T09:46:49;5.17;;;4.50;;
8260;SDS011;64115;50.170;8.242;2023-07-08T09:49:17;8.10;;;4.50;;
8260;SDS011;64115;50.170;8.242;2023-07-08T09:51:48;6.20;;;4.40;;
8260;SDS011;64115;50.170;8.242;2023-07-08T09:54:16;5.20;;;4.53;;
8260;SDS011;64115;50.170;8.242;2023-07-08T09:56:47;4.53;;;4.17;;
8260;SDS011;64115;50.170;8.242;2023-07-08T09:59:30;4.90;;;4.50;;
8260;SDS011;64115;50.170;8.242;2023-07-08T10:02:02;4.73;;;4.27;;
8260;SDS011;64115;50.170;8.242;2023-07-08T10:04:45;6.27;;;4.57;;
8260;SDS011;64115;50.170;8.242;2023-07-08T10:07:12;5.23;;;4.67;;
8260;SDS011;64115;50.170;8.242;2023-07-08T10:09:43;4.80;;;4.40;;
8260;SDS011;64115;50.170;8.242;2023-07-08T10:12:12;5.03;;;4.53;;
8260;SDS011;64115;50.170;8.242;2023-07-08T10:14:42;5.07;;;4.57;;
8260;SDS011;64115;50.170;8.242;2023-07-08T10:17:16;5.00;;;4.53;;
8260;SDS011;64115;50.170;8.242;2023-07-08T10:19:45;5.57;;;4.60;;
8260;SDS011;64115;50.170;8.242;2023-07-08T10:22:17;4.63;;;4.23;;
8260;SDS011;64115;50.170;8.242;2023-07-08T10:24:57;4.77;;;4.47;;
8260;SDS011;64115;50.170;8.242;2023-07-08T10:27:35;6.03;;;4.50;;
8260;SDS011;64115;50.170;8.242;2023-07-08T10:30:16;5.03;;;4.57;;
8260;SDS011;64115;50.170;8.242;2023-07-08T10:32:55;5.50;;;5.00;;
8260;SDS011;64115;50.170;8.242;2023-07-08T10:35:34;5.73;;;4.80;;
8260;SDS011;64115;50.170;8.242;2023-07-08T10:38:10;5.17;;;4.63;;
8260;SDS011;64115;50.170;8.242;2023-07-08T10:40:53;4.83;;;4.33;;
8260;SDS011;64115;50.170;8.242;2023-07-08T10:43:28;5.10;;;4.70;;
8260;SDS011;64115;50.170;8.242;2023-07-08T10:46:08;4.93;;;4.53;;
8260;SDS011;64115;50.170;8.242;2023-07-08T10:48:55;5.20;;;4.67;;
8260;SDS011;64115;50.170;8.242;2023-07-08T10:51:34;6.00;;;4.50;;
8260;SDS011;64115;50.170;8.242;2023-07-08T10:54:12;4.57;;;4.23;;
8260;SDS011;64115;50.170;8.242;2023-07-08T10:57:05;6.60;;;4.90;;
8260;SDS011;64115;50.170;8.242;2023-07-08T10:59:45;6.57;;;5.23;;
8260;SDS011;64115;50.170;8.242;2023-07-08T11:02:22;5.97;;;5.40;;
8260;SDS011;64115;50.170;8.242;2023-07-08T11:05:05;6.77;;;5.27;;
8260;SDS011;64115;50.170;8.242;2023-07-08T11:07:43;5.70;;;5.13;;
8260;SDS011;64115;50.170;8.242;2023-07-08T11:10:16;7.50;;;5.10;;
8260;SDS011;64115;50.170;8.242;2023-07-08T11:12:47;6.03;;;5.17;;
8260;SDS011;64115;50.170;8.242;2023-07-08T11:15:16;6.57;;;5.10;;
8260;SDS011;64115;50.170;8.242;2023-07-08T11:17:48;5.93;;;4.90;;
8260;SDS011;64115;50.170;8.242;2023-07-08T11:20:21;5.73;;;5.17;;
8260;SDS011;64115;50.170;8.242;2023-07-08T11:22:54;6.63;;;5.20;;
8260;SDS011;64115;50.170;8.242;2023-07-08T11:25:30;6.83;;;4.63;;
8260;SDS011;64115;50.170;8.242;2023-07-08T11:27:59;5.67;;;5.17;;
8260;SDS011;64115;50.170;8.242;2023-07-08T11:30:32;5.53;;;5.13;;
8260;SDS011;64115;50.170;8.242;2023-07-08T11:33:05;6.50;;;5.90;;
8260;SDS011;64115;50.170;8.242;2023-07-08T11:35:37;5.57;;;5.00;;
8260;SDS011;64115;50.170;8.242;2023-07-08T11:38:09;5.13;;;4.73;;
8260;SDS011;64115;50.170;8.242;2023-07-08T11:40:49;7.33;;;5.10;;
8260;SDS011;64115;50.170;8.242;2023-07-08T11:43:18;5.43;;;4.97;;
8260;SDS011;64115;50.170;8.242;2023-07-08T11:45:47;6.33;;;5.30;;
8260;SDS011;64115;50.170;8.242;2023-07-08T11:48:16;5.63;;;5.00;;
8260;SDS011;64115;50.170;8.242;2023-07-08T11:50:46;5.70;;;4.90;;
8260;SDS011;64115;50.170;8.242;2023-07-08T11:53:30;5.60;;;4.93;;
8260;SDS011;64115;50.170;8.242;2023-07-08T11:56:01;5.20;;;4.60;;
8260;SDS011;64115;50.170;8.242;2023-07-08T11:58:30;5.30;;;4.90;;
8260;SDS011;64115;50.170;8.242;2023-07-08T12:01:22;5.37;;;4.90;;
8260;SDS011;64115;50.170;8.242;2023-07-08T12:03:54;6.47;;;5.23;;
8260;SDS011;64115;50.170;8.242;2023-07-08T12:06:46;5.20;;;4.70;;
8260;SDS011;64115;50.170;8.242;2023-07-08T12:09:15;5.10;;;4.60;;
8260;SDS011;64115;50.170;8.242;2023-07-08T12:11:48;5.37;;;4.50;;
8260;SDS011;64115;50.170;8.242;2023-07-08T12:14:19;5.43;;;4.33;;
8260;SDS011;64115;50.170;8.242;2023-07-08T12:16:47;5.10;;;4.67;;
8260;SDS011;64115;50.170;8.242;2023-07-08T12:19:16;6.03;;;4.60;;
8260;SDS011;64115;50.170;8.242;2023-07-08T12:21:49;5.13;;;4.60;;
8260;SDS011;64115;50.170;8.242;2023-07-08T12:24:16;5.03;;;4.53;;
8260;SDS011;64115;50.170;8.242;2023-07-08T12:26:50;5.80;;;4.93;;
8260;SDS011;64115;50.170;8.242;2023-07-08T12:29:17;5.90;;;4.60;;
8260;SDS011;64115;50.170;8.242;2023-07-08T12:31:47;5.37;;;4.27;;
8260;SDS011;64115;50.170;8.242;2023-07-08T12:34:15;5.00;;;4.50;;
8260;SDS011;64115;50.170;8.242;2023-07-08T12:36:43;5.23;;;4.73;;
8260;SDS011;64115;50.170;8.242;2023-07-08T12:39:14;6.10;;;4.57;;
8260;SDS011;64115;50.170;8.242;2023-07-08T12:41:43;5.93;;;4.50;;
8260;SDS011;64115;50.170;8.242;2023-07-08T12:44:15;5.33;;;4.70;;
8260;SDS011;64115;50.170;8.242;2023-07-08T12:46:45;7.07;;;4.70;;
8260;SDS011;64115;50.170;8.242;2023-07-08T12:49:13;6.13;;;4.50;;
8260;SDS011;64115;50.170;8.242;2023-07-08T12:51:41;4.70;;;4.20;;
8260;SDS011;64115;50.170;8.242;2023-07-08T12:54:09;6.23;;;4.57;;
8260;SDS011;64115;50.170;8.242;2023-07-08T12:56:38;5.83;;;5.03;;
8260;SDS011;64115;50.170;8.242;2023-07-08T12:59:10;5.47;;;4.97;;
8260;SDS011;64115;50.170;8.242;2023-07-08T13:01:43;5.13;;;4.63;;
8260;SDS011;64115;50.170;8.242;2023-07-08T13:04:12;6.40;;;4.83;;
8260;SDS011;64115;50.170;8.242;2023-07-08T13:06:40;5.20;;;4.70;;
8260;SDS011;64115;50.170;8.242;2023-07-08T13:09:23;6.77;;;4.83;;
8260;SDS011;64115;50.170;8.242;2023-07-08T13:11:59;4.90;;;4.50;;
8260;SDS011;64115;50.170;8.242;2023-07-08T13:14:31;6.70;;;4.80;;
8260;SDS011;64115;50.170;8.242;2023-07-08T13:16:58;6.93;;;5.07;;
8260;SDS011;64115;50.170;8.242;2023-07-08T13:19:25;5.37;;;4.80;;
8260;SDS011;64115;50.170;8.242;2023-07-08T13:21:52;4.53;;;4.13;;
8260;SDS011;64115;50.170;8.242;2023-07-08T13:24:18;5.23;;;4.20;;
8260;SDS011;64115;50.170;8.242;2023-07-08T13:26:47;5.13;;;4.63;;
8260;SDS011;64115;50.170;8.242;2023-07-08T13:29:18;6.20;;;4.20;;
8260;SDS011;64115;50.170;8.242;2023-07-08T13:31:47;4.80;;;4.40;;
8260;SDS011;64115;50.170;8.242;2023-07-08T13:34:20;5.67;;;4.20;;
8260;SDS011;64115;50.170;8.242;2023-07-08T13:36:51;4.73;;;4.33;;
8260;SDS011;64115;50.170;8.242;2023-07-08T13:39:20;5.13;;;4.63;;
8260;SDS011;64115;50.170;8.242;2023-07-08T13:41:51;6.07;;;4.13;;
8260;SDS011;64115;50.170;8.242;2023-07-08T13:44:20;4.07;;;3.77;;
8260;SDS011;64115;50.170;8.242;2023-07-08T13:46:50;3.87;;;3.57;;
8260;SDS011;64115;50.170;8.242;2023-07-08T13:49:20;4.20;;;3.80;;
8260;SDS011;64115;50.170;8.242;2023-07-08T13:51:55;4.63;;;3.80;;
8260;SDS011;64115;50.170;8.242;2023-07-08T13:54:33;4.67;;;4.27;;
8260;SDS011;64115;50.170;8.242;2023-07-08T13:57:08;5.40;;;4.43;;
8260;SDS011;64115;50.170;8.242;2023-07-08T13:59:38;5.00;;;3.90;;
8260;SDS011;64115;50.170;8.242;2023-07-08T14:02:12;4.53;;;3.60;;
8260;SDS011;64115;50.170;8.242;2023-07-08T14:04:42;3.80;;;3.50;;
8260;SDS011;64115;50.170;8.242;2023-07-08T14:07:11;5.27;;;3.90;;
8260;SDS011;64115;50.170;8.242;2023-07-08T14:09:41;4.80;;;4.13;;
8260;SDS011;64115;50.170;8.242;2023-07-08T14:12:08;4.63;;;3.90;;
8260;SDS011;64115;50.170;8.242;2023-07-08T14:14:35;5.47;;;3.63;;
8260;SDS011;64115;50.170;8.242;2023-07-08T14:17:03;5.27;;;3.80;;
8260;SDS011;64115;50.170;8.242;2023-07-08T14:19:34;5.70;;;3.60;;
8260;SDS011;64115;50.170;8.242;2023-07-08T14:22:02;4.93;;;3.57;;
8260;SDS011;64115;50.170;8.242;2023-07-08T14:24:41;3.83;;;3.50;;
8260;SDS011;64115;50.170;8.242;2023-07-08T14:27:09;4.07;;;3.67;;
8260;SDS011;64115;50.170;8.242;2023-07-08T14:29:37;3.93;;;3.50;;
8260;SDS011;64115;50.170;8.242;2023-07-08T14:32:08;3.63;;;3.33;;
8260;SDS011;64115;50.170;8.242;2023-07-08T14:34:38;3.80;;;3.50;;
8260;SDS011;64115;50.170;8.242;2023-07-08T14:37:08;4.60;;;3.67;;
8260;SDS011;64115;50.170;8.242;2023-07-08T14:39:40;5.37;;;3.60;;
8260;SDS011;64115;50.170;8.242;2023-07-08T14:42:08;4.03;;;3.37;;
8260;SDS011;64115;50.170;8.242;2023-07-08T14:44:37;3.87;;;3.57;;
8260;SDS011;64115;50.170;8.242;2023-07-08T14:47:08;5.17;;;3.20;;
8260;SDS011;64115;50.170;8.242;2023-07-08T14:49:36;5.43;;;3.57;;
8260;SDS011;64115;50.170;8.242;2023-07-08T14:52:04;5.37;;;3.77;;
8260;SDS011;64115;50.170;8.242;2023-07-08T14:54:31;4.10;;;3.50;;
8260;SDS011;64115;50.170;8.242;2023-07-08T14:56:58;5.57;;;4.00;;
8260;SDS011;64115;50.170;8.242;2023-07-08T14:59:27;9.83;;;4.00;;
8260;SDS011;64115;50.170;8.242;2023-07-08T15:01:57;3.93;;;3.57;;
8260;SDS011;64115;50.170;8.242;2023-07-08T15:04:26;6.17;;;3.60;;
8260;SDS011;64115;50.170;8.242;2023-07-08T15:06:54;4.90;;;3.50;;
8260;SDS011;64115;50.170;8.242;2023-07-08T15:09:23;5.90;;;3.50;;
8260;SDS011;64115;50.170;8.242;2023-07-08T15:11:50;3.77;;;3.33;;
8260;SDS011;64115;50.170;8.242;2023-07-08T15:14:18;4.63;;;3.50;;
8260;SDS011;64115;50.170;8.242;2023-07-08T15:16:46;6.07;;;3.90;;